Time;durP1;ratioP1;P1;durP2;ratioP2;P2;SDS_P1;SDS_P2;PMS_P1;PMS_P2;Temp;Humidity;BMP_temperature;BMP_pressure;BME280_temperature;BME280_humidity;BME280_pressure;Samples;Min_cycle;Max_cycle;Signal;HPM_P1;HPM_P2
2021/05/15 00:01:34;;;;;;;;;;;;;;;14.09;72.85;98534.13;3525791;28;19932;-48
2021/05/15 00:03:15;;;;;;;;;;;;;;;14.08;72.17;98535.00;3526761;28;20273;-46
2021/05/15 00:04:56;;;;;;;;;;;;;;;14.07;73.85;98546.31;3525783;28;19927;-46
2021/05/15 00:06:36;;;;;;;;;;;;;;;14.05;73.65;98544.63;3525920;28;19928;-46
2021/05/15 00:08:17;;;;;;;;;;;;;;;14.02;74.23;98545.56;3526607;28;20465;-46
2021/05/15 00:09:59;;;;;;;;;;;;;;;14.01;74.22;98542.97;3525817;28;20046;-46
2021/05/15 00:11:40;;;;;;;;;;;;;;;13.98;74.42;98546.47;3526788;28;19959;-46
2021/05/15 00:13:20;;;;;;;;;;;;;;;13.97;74.35;98546.50;3520916;28;19964;-46
2021/05/15 00:15:03;;;;;;;;;;;;;;;13.96;74.24;98545.66;3513944;28;19935;-46
2021/05/15 00:16:44;;;;;;;;;;;;;;;13.94;74.42;98547.44;3526390;28;19931;-47
2021/05/15 00:18:24;;;;;;;;;;;;;;;13.93;74.29;98543.09;3525662;28;19953;-45
2021/05/15 00:20:09;;;;;;;;;;;;;;;13.92;74.13;98541.41;3526808;28;19996;-46
2021/05/15 00:21:50;;;;;;;;;;;;;;;13.90;74.27;98544.03;3525463;28;20415;-46
2021/05/15 00:23:31;;;;;;;;;;;;;;;13.89;74.91;98542.28;3526456;28;19928;-46
2021/05/15 00:25:13;;;;;;;;;;;;;;;13.87;74.99;98540.63;3525897;28;19928;-46
2021/05/15 00:26:54;;;;;;;;;;;;;;;13.85;75.47;98543.25;3525680;28;20014;-46
2021/05/15 00:28:34;;;;;;;;;;;;;;;13.83;75.81;98544.16;3526394;28;19935;-46
2021/05/15 00:30:16;;;;;;;;;;;;;;;13.80;75.91;98545.06;3525667;28;19951;-46
2021/05/15 00:31:56;;;;;;;;;;;;;;;13.78;75.85;98546.84;3526575;28;19966;-46
2021/05/15 00:33:37;;;;;;;;;;;;;;;13.74;76.12;98542.59;3525048;28;19928;-46
2021/05/15 00:35:18;;;;;;;;;;;;;;;13.71;76.08;98540.03;3526868;28;20410;-47
2021/05/15 00:36:59;;;;;;;;;;;;;;;13.69;75.76;98540.03;3525402;28;19976;-46
2021/05/15 00:38:39;;;;;;;;;;;;;;;13.66;75.99;98539.25;3525813;28;19970;-47
2021/05/15 00:40:21;;;;;;;;;;;;;;;13.64;76.49;98541.03;3525943;28;19927;-46
2021/05/15 00:42:01;;;;;;;;;;;;;;;13.61;76.55;98543.66;3525496;28;20381;-46
2021/05/15 00:43:56;;;;;;;;;;;;;;;13.57;76.73;98545.47;3526340;28;20015;-46
2021/05/15 00:45:36;;;;;;;;;;;;;;;13.51;76.97;98551.66;3525352;28;19928;-46
2021/05/15 00:47:18;;;;;;;;;;;;;;;13.48;77.02;98548.22;3526166;28;19939;-46
2021/05/15 00:48:58;;;;;;;;;;;;;;;13.45;77.71;98556.09;3525679;28;20400;-46
2021/05/15 00:50:39;;;;;;;;;;;;;;;13.40;77.68;98535.31;3525472;28;19934;-46
2021/05/15 00:52:20;;;;;;;;;;;;;;;13.38;78.07;98539.69;3526046;28;19939;-49
2021/05/15 00:54:01;;;;;;;;;;;;;;;13.37;77.98;98538.00;3525180;28;20010;-46
2021/05/15 00:55:43;;;;;;;;;;;;;;;13.35;77.79;98542.34;3526506;28;19934;-46
2021/05/15 00:57:24;;;;;;;;;;;;;;;13.34;77.94;98545.84;3525421;28;20431;-46
2021/05/15 00:59:05;;;;;;;;;;;;;;;13.30;78.08;98547.63;3525837;28;19944;-47
2021/05/15 01:00:46;;;;;;;;;;;;;;;13.29;78.06;98545.06;3525085;28;19928;-47
2021/05/15 01:02:27;;;;;;;;;;;;;;;13.26;77.90;98553.75;3525734;28;19934;-46
2021/05/15 01:04:07;;;;;;;;;;;;;;;13.24;78.07;98554.69;3526085;28;20232;-46
2021/05/15 01:05:48;;;;;;;;;;;;;;;13.21;78.68;98555.59;3524291;28;20303;-41
2021/05/15 01:07:29;;;;;;;;;;;;;;;13.19;79.10;98551.28;3526200;28;20320;-42
2021/05/15 01:09:09;;;;;;;;;;;;;;;13.15;79.10;98555.66;3525031;28;19967;-42
2021/05/15 01:10:51;;;;;;;;;;;;;;;13.12;79.36;98556.59;3526387;28;19981;-42
2021/05/15 01:12:31;;;;;;;;;;;;;;;13.08;79.67;98556.66;3524891;28;19934;-42
2021/05/15 01:14:12;;;;;;;;;;;;;;;13.03;79.87;98559.31;3524139;28;19928;-42
2021/05/15 01:15:53;;;;;;;;;;;;;;;13.01;79.72;98555.88;3524839;28;20498;-42
2021/05/15 01:17:34;;;;;;;;;;;;;;;12.99;79.74;98554.19;3525240;28;20380;-42
2021/05/15 01:19:15;;;;;;;;;;;;;;;12.96;80.59;98552.47;3525971;28;19928;-42
2021/05/15 01:20:58;;;;;;;;;;;;;;;12.93;80.01;98552.53;3524657;28;19976;-42
2021/05/15 01:22:39;;;;;;;;;;;;;;;12.92;80.73;98548.19;3526160;28;19959;-42
2021/05/15 01:24:20;;;;;;;;;;;;;;;12.90;80.58;98549.94;3524878;28;20316;-42
2021/05/15 01:26:10;;;;;;;;;;;;;;;12.88;80.45;98554.31;3525482;28;19931;-42
2021/05/15 01:27:51;;;;;;;;;;;;;;;12.86;80.20;98556.03;3525486;28;20354;-42
2021/05/15 01:29:32;;;;;;;;;;;;;;;12.84;80.47;98556.09;3524954;28;19927;-42
2021/05/15 01:31:13;;;;;;;;;;;;;;;12.82;80.63;98559.56;3526060;28;20030;-42
2021/05/15 01:32:54;;;;;;;;;;;;;;;12.81;80.53;98557.88;3524577;28;19963;-42
2021/05/15 01:34:34;;;;;;;;;;;;;;;12.79;80.85;98565.69;3526050;28;19928;-42
2021/05/15 01:36:16;;;;;;;;;;;;;;;12.77;80.88;98563.09;3524774;28;19932;-42
2021/05/15 01:37:57;;;;;;;;;;;;;;;12.76;81.04;98560.53;3525350;28;19928;-42
2021/05/15 01:39:37;;;;;;;;;;;;;;;12.73;81.29;98563.16;3524730;28;20476;-45
2021/05/15 01:41:19;;;;;;;;;;;;;;;12.72;81.71;98562.31;3524836;28;19934;-47
2021/05/15 01:43:00;;;;;;;;;;;;;;;12.70;81.73;98563.19;3525883;28;20537;-46
2021/05/15 01:44:41;;;;;;;;;;;;;;;12.70;81.91;98560.59;3524683;28;19972;-46
2021/05/15 01:46:22;;;;;;;;;;;;;;;12.70;81.98;98555.38;3525851;28;20380;-46
2021/05/15 01:48:02;;;;;;;;;;;;;;;12.71;81.82;98554.50;3524783;28;20435;-42
2021/05/15 01:49:46;;;;;;;;;;;;;;;12.72;81.55;98561.44;3525248;28;19928;-42
2021/05/15 01:51:27;;;;;;;;;;;;;;;12.72;81.02;98558.84;3525348;28;20472;-42
2021/05/15 01:53:08;;;;;;;;;;;;;;;12.74;80.99;98554.47;3524565;28;20353;-42
2021/05/15 01:54:49;;;;;;;;;;;;;;;12.75;80.95;98554.47;3525526;28;19980;-42
2021/05/15 01:56:30;;;;;;;;;;;;;;;12.76;80.90;98558.78;3524402;28;19982;-42
2021/05/15 01:58:11;;;;;;;;;;;;;;;12.77;80.67;98552.69;3525896;28;20455;-42
2021/05/15 01:59:51;;;;;;;;;;;;;;;12.79;80.44;98557.00;3524374;28;19934;-42
2021/05/15 02:01:32;;;;;;;;;;;;;;;12.79;79.82;98554.41;3525285;28;19928;-42
2021/05/15 02:03:13;;;;;;;;;;;;;;;12.77;79.25;98557.06;3524062;28;20030;-42
2021/05/15 02:04:53;;;;;;;;;;;;;;;12.76;79.05;98560.53;3524800;28;19931;-42
2021/05/15 02:06:35;;;;;;;;;;;;;;;12.74;79.88;98565.75;3525244;28;20385;-42
2021/05/15 02:08:16;;;;;;;;;;;;;;;12.72;79.92;98566.66;3524518;28;19928;-42
2021/05/15 02:09:57;;;;;;;;;;;;;;;12.70;80.56;98565.78;3525769;28;19934;-42
2021/05/15 02:11:39;;;;;;;;;;;;;;;12.66;80.79;98564.13;3524399;28;20453;-42
2021/05/15 02:13:19;;;;;;;;;;;;;;;12.62;81.37;98571.09;3521385;28;20018;-42
2021/05/15 02:15:00;;;;;;;;;;;;;;;12.56;81.82;98566.84;3524628;28;19928;-42
2021/05/15 02:16:41;;;;;;;;;;;;;;;12.51;82.02;98568.63;3524435;28;20006;-42
2021/05/15 02:18:22;;;;;;;;;;;;;;;12.46;82.40;98566.97;3525440;28;20030;-42
2021/05/15 02:20:03;;;;;;;;;;;;;;;12.42;82.36;98566.16;3524245;28;19928;-42
2021/05/15 02:21:44;;;;;;;;;;;;;;;12.39;82.02;98572.22;3525441;28;19934;-49
2021/05/15 02:23:25;;;;;;;;;;;;;;;12.38;81.61;98570.53;3524363;28;19928;-42
2021/05/15 02:25:07;;;;;;;;;;;;;;;12.37;82.00;98579.19;3525566;28;19935;-42
2021/05/15 02:26:47;;;;;;;;;;;;;;;12.36;81.65;98577.50;3523142;28;19927;-42
2021/05/15 02:28:28;;;;;;;;;;;;;;;12.36;82.08;98576.59;3524663;28;19934;-42
2021/05/15 02:30:09;;;;;;;;;;;;;;;12.35;82.02;98573.16;3525036;28;19927;-42
2021/05/15 02:31:50;;;;;;;;;;;;;;;12.36;82.32;98579.22;3524245;28;19934;-42
2021/05/15 02:33:31;;;;;;;;;;;;;;;12.36;83.07;98590.50;3525340;28;19980;-42
2021/05/15 02:35:13;;;;;;;;;;;;;;;12.35;83.55;98583.56;3524065;28;20318;-42
2021/05/15 02:36:55;;;;;;;;;;;;;;;12.35;83.45;98587.91;3525395;28;20308;-42
2021/05/15 02:38:36;;;;;;;;;;;;;;;12.33;83.56;98587.91;3524143;28;19928;-42
2021/05/15 02:40:16;;;;;;;;;;;;;;;12.34;84.08;98588.78;3524459;28;19972;-42
2021/05/15 02:41:57;;;;;;;;;;;;;;;12.33;84.16;98595.72;3524774;28;20285;-42
2021/05/15 02:43:38;;;;;;;;;;;;;;;12.34;84.62;98599.16;3524369;28;20469;-50
2021/05/15 02:45:19;;;;;;;;;;;;;;;12.34;84.85;98602.63;3525308;28;19935;-46
2021/05/15 02:47:00;;;;;;;;;;;;;;;12.34;85.07;98602.63;3523815;28;19935;-49
2021/05/15 02:48:41;;;;;;;;;;;;;;;12.35;85.18;98600.91;3525139;28;19927;-51
2021/05/15 02:50:22;;;;;;;;;;;;;;;12.36;84.93;98610.41;3523946;28;20022;-50
2021/05/15 02:52:04;;;;;;;;;;;;;;;12.37;85.22;98612.16;3524340;28;19928;-46
2021/05/15 02:53:44;;;;;;;;;;;;;;;12.36;85.58;98616.50;3524319;28;20049;-49
2021/05/15 02:55:26;;;;;;;;;;;;;;;12.38;85.55;98619.06;3524601;28;20431;-42
2021/05/15 02:57:07;;;;;;;;;;;;;;;12.39;85.44;98620.78;3524883;28;20389;-42
2021/05/15 02:58:48;;;;;;;;;;;;;;;12.39;85.16;98624.25;3523867;28;19928;-42
2021/05/15 03:00:29;;;;;;;;;;;;;;;12.38;85.07;98625.16;3525407;28;19989;-42
2021/05/15 03:02:09;;;;;;;;;;;;;;;12.39;84.82;98624.25;3523748;28;19934;-42
2021/05/15 03:03:50;;;;;;;;;;;;;;;12.41;85.08;98616.44;3524764;28;20425;-42
2021/05/15 03:05:31;;;;;;;;;;;;;;;12.43;85.23;98626.81;3523382;28;19935;-42
2021/05/15 03:07:12;;;;;;;;;;;;;;;12.42;85.11;98615.56;3523977;28;20002;-42
2021/05/15 03:08:53;;;;;;;;;;;;;;;12.44;85.16;98626.81;3524582;28;19932;-42
2021/05/15 03:10:33;;;;;;;;;;;;;;;12.47;85.39;98628.50;3523818;28;20406;-42
2021/05/15 03:12:14;;;;;;;;;;;;;;;12.49;85.43;98632.81;3524928;28;19983;-42
2021/05/15 03:13:55;;;;;;;;;;;;;;;12.52;85.46;98629.31;3522331;28;20390;-42
2021/05/15 03:15:36;;;;;;;;;;;;;;;12.55;85.30;98626.69;3524494;28;20088;-42
2021/05/15 03:17:17;;;;;;;;;;;;;;;12.60;85.06;98618.84;3524154;28;19927;-42
2021/05/15 03:18:57;;;;;;;;;;;;;;;12.64;84.71;98620.53;3523915;28;20313;-42
2021/05/15 03:20:38;;;;;;;;;;;;;;;12.69;84.48;98621.31;3524539;28;19927;-42
2021/05/15 03:22:20;;;;;;;;;;;;;;;12.71;84.40;98614.38;3523974;28;19928;-42
2021/05/15 03:24:01;;;;;;;;;;;;;;;12.75;84.21;98622.13;3510850;28;19928;-42
2021/05/15 03:25:41;;;;;;;;;;;;;;;12.80;84.09;98619.44;3520338;28;20022;-47
2021/05/15 03:27:22;;;;;;;;;;;;;;;12.84;84.10;98625.47;3524788;28;20388;-49
2021/05/15 03:29:03;;;;;;;;;;;;;;;12.87;84.16;98622.84;3522759;28;19989;-48
2021/05/15 03:30:44;;;;;;;;;;;;;;;12.90;84.28;98623.69;3524146;28;19934;-48
2021/05/15 03:32:24;;;;;;;;;;;;;;;12.96;83.79;98630.56;3524514;28;19939;-46
2021/05/15 03:34:07;;;;;;;;;;;;;;;13.05;83.82;98634.78;3523799;28;19967;-51
2021/05/15 03:35:48;;;;;;;;;;;;;;;13.16;83.54;98632.91;3524621;28;19927;-47
2021/05/15 03:37:29;;;;;;;;;;;;;;;13.26;83.07;98631.88;3523661;28;20506;-49
2021/05/15 03:39:17;;;;;;;;;;;;;;;13.35;82.98;98636.09;3524617;28;20018;-47
2021/05/15 03:40:58;;;;;;;;;;;;;;;13.45;82.62;98637.69;3523739;28;20312;-49
2021/05/15 03:42:39;;;;;;;;;;;;;;;13.54;82.18;98644.53;3523744;28;19928;-47
2021/05/15 03:44:19;;;;;;;;;;;;;;;13.61;82.05;98637.47;3524384;28;19963;-49
2021/05/15 03:46:00;;;;;;;;;;;;;;;13.64;81.57;98640.91;3523596;28;20022;-47
2021/05/15 03:47:41;;;;;;;;;;;;;;;13.69;81.61;98640.84;3524394;28;20309;-48
2021/05/15 03:49:22;;;;;;;;;;;;;;;13.71;81.41;98645.13;3522757;28;19939;-47
2021/05/15 03:51:03;;;;;;;;;;;;;;;13.76;81.20;98644.19;3524638;28;19928;-48
2021/05/15 03:52:44;;;;;;;;;;;;;;;13.78;81.09;98647.66;3523348;28;19927;-46
2021/05/15 03:54:25;;;;;;;;;;;;;;;13.79;81.13;98639.78;3523989;28;19931;-46
2021/05/15 03:56:06;;;;;;;;;;;;;;;13.82;80.77;98652.78;3523040;28;19962;-46
2021/05/15 03:57:46;;;;;;;;;;;;;;;13.86;80.03;98646.63;3523431;28;19927;-48
2021/05/15 03:59:27;;;;;;;;;;;;;;;13.90;79.83;98650.06;3523551;28;19927;-47
2021/05/15 04:01:08;;;;;;;;;;;;;;;13.92;79.75;98645.69;3522974;28;19978;-48
2021/05/15 04:02:48;;;;;;;;;;;;;;;13.95;79.63;98650.81;3524531;28;19928;-48
2021/05/15 04:04:29;;;;;;;;;;;;;;;14.00;79.71;98653.38;3523364;28;20379;-48
2021/05/15 04:06:10;;;;;;;;;;;;;;;14.03;79.47;98645.50;3523945;28;20338;-47
2021/05/15 04:07:51;;;;;;;;;;;;;;;14.07;79.17;98649.78;3523551;28;19951;-47
2021/05/15 04:09:32;;;;;;;;;;;;;;;14.13;79.24;98652.28;3523433;28;19928;-47
2021/05/15 04:11:13;;;;;;;;;;;;;;;14.18;79.08;98646.97;3524232;28;19935;-48
2021/05/15 04:13:02;;;;;;;;;;;;;;;14.21;78.75;98649.53;3523146;28;20432;-47
2021/05/15 04:14:44;;;;;;;;;;;;;;;14.25;78.40;98653.81;3524416;28;19927;-47
2021/05/15 04:16:32;;;;;;;;;;;;;;;14.26;78.19;98653.78;3523108;28;19935;-46
2021/05/15 04:18:13;;;;;;;;;;;;;;;14.27;78.30;98652.03;3523594;28;20324;-46
2021/05/15 04:19:54;;;;;;;;;;;;;;;14.29;78.40;98658.09;3524015;28;19981;-48
2021/05/15 04:21:35;;;;;;;;;;;;;;;14.31;78.03;98648.53;3523070;28;19936;-47
2021/05/15 04:23:16;;;;;;;;;;;;;;;14.33;78.07;98656.31;3524298;28;19934;-47
2021/05/15 04:25:00;;;;;;;;;;;;;;;14.34;78.17;98656.31;3523072;28;20008;-47
2021/05/15 04:26:40;;;;;;;;;;;;;;;14.36;78.13;98651.91;3524382;28;19954;-51
2021/05/15 04:28:22;;;;;;;;;;;;;;;14.39;77.85;98654.44;3522935;28;19970;-46
2021/05/15 04:30:03;;;;;;;;;;;;;;;14.41;78.07;98662.25;3523252;28;20008;-52
2021/05/15 04:31:44;;;;;;;;;;;;;;;14.42;77.87;98658.75;3523912;28;20277;-52
2021/05/15 04:33:25;;;;;;;;;;;;;;;14.45;78.05;98656.09;3523183;28;19977;-51
2021/05/15 04:35:06;;;;;;;;;;;;;;;14.46;77.62;98663.91;3523940;28;20649;-50
2021/05/15 04:36:47;;;;;;;;;;;;;;;14.48;77.45;98663.84;3522848;28;19927;-51
2021/05/15 04:38:29;;;;;;;;;;;;;;;14.50;77.54;98663.81;3524416;28;20304;-48
2021/05/15 04:40:10;;;;;;;;;;;;;;;14.50;77.42;98666.44;3523353;28;20304;-47
2021/05/15 04:41:51;;;;;;;;;;;;;;;14.49;77.12;98668.19;3525804;28;19928;-48
2021/05/15 04:43:32;;;;;;;;;;;;;;;14.49;77.36;98665.59;3525856;28;19927;-53
2021/05/15 04:45:13;;;;;;;;;;;;;;;14.50;77.00;98671.66;3525374;28;19928;-52
2021/05/15 04:46:54;;;;;;;;;;;;;;;14.51;76.86;98673.38;3526335;28;20269;-46
2021/05/15 04:48:37;;;;;;;;;;;;;;;14.51;76.95;98666.41;3525276;28;19946;-47
2021/05/15 04:50:18;;;;;;;;;;;;;;;14.51;76.89;98674.25;3526469;28;20289;-46
2021/05/15 04:51:58;;;;;;;;;;;;;;;14.51;76.89;98676.84;3525204;28;20243;-48
2021/05/15 04:53:40;;;;;;;;;;;;;;;14.51;77.02;98679.47;3526031;28;19928;-46
2021/05/15 04:55:20;;;;;;;;;;;;;;;14.53;76.92;98676.81;3525787;28;19934;-47
2021/05/15 04:57:01;;;;;;;;;;;;;;;14.55;76.91;98681.13;3525542;28;19950;-45
2021/05/15 04:58:42;;;;;;;;;;;;;;;14.55;76.98;98683.72;3526425;28;19985;-41
2021/05/15 05:00:23;;;;;;;;;;;;;;;14.57;77.17;98681.97;3525509;28;20369;-41
2021/05/15 05:02:04;;;;;;;;;;;;;;;14.60;76.79;98683.66;3526263;28;20022;-42
2021/05/15 05:03:45;;;;;;;;;;;;;;;14.62;77.01;98690.59;3524974;28;19931;-41
2021/05/15 05:05:25;;;;;;;;;;;;;;;14.64;77.02;98680.97;3525823;28;19947;-41
2021/05/15 05:07:06;;;;;;;;;;;;;;;14.67;76.83;98681.78;3525409;28;19928;-41
2021/05/15 05:08:47;;;;;;;;;;;;;;;14.70;77.10;98689.56;3525138;28;19932;-42
2021/05/15 05:10:28;;;;;;;;;;;;;;;14.74;76.53;98688.63;3526045;28;19928;-41
2021/05/15 05:12:09;;;;;;;;;;;;;;;14.78;76.65;98695.50;3524784;28;20797;-41
2021/05/15 05:13:49;;;;;;;;;;;;;;;14.83;76.70;98694.50;3517660;28;19928;-41
2021/05/15 05:15:30;;;;;;;;;;;;;;;14.90;76.79;98703.09;3522074;28;19935;-41
2021/05/15 05:17:11;;;;;;;;;;;;;;;14.95;76.25;98708.22;3526175;28;19928;-42
2021/05/15 05:18:52;;;;;;;;;;;;;;;15.00;76.41;98702.03;3523918;28;19927;-41
2021/05/15 05:20:32;;;;;;;;;;;;;;;15.01;75.61;98703.75;3525358;28;19935;-41
2021/05/15 05:22:13;;;;;;;;;;;;;;;15.02;75.89;98705.47;3525854;28;19927;-46
2021/05/15 05:23:54;;;;;;;;;;;;;;;15.04;75.49;98695.84;3524971;28;19989;-45
2021/05/15 05:25:35;;;;;;;;;;;;;;;15.08;75.44;98695.78;3526228;28;19932;-46
2021/05/15 05:27:18;;;;;;;;;;;;;;;15.16;75.48;98705.19;3524737;28;20294;-46
2021/05/15 05:28:59;;;;;;;;;;;;;;;15.25;75.36;98711.97;3526006;28;20117;-46
2021/05/15 05:30:40;;;;;;;;;;;;;;;15.33;75.02;98707.47;3524777;28;19927;-48
2021/05/15 05:32:21;;;;;;;;;;;;;;;15.40;74.70;98705.59;3525299;28;19927;-49
2021/05/15 05:34:02;;;;;;;;;;;;;;;15.47;74.97;98711.50;3525759;28;20459;-47
2021/05/15 05:35:42;;;;;;;;;;;;;;;15.58;74.53;98704.34;3524922;28;19962;-45
2021/05/15 05:37:23;;;;;;;;;;;;;;;15.70;74.26;98711.91;3525904;28;19934;-46
2021/05/15 05:39:07;;;;;;;;;;;;;;;15.85;74.02;98712.47;3524757;28;20307;-48
2021/05/15 05:40:48;;;;;;;;;;;;;;;15.96;72.91;98715.66;3526283;28;20471;-45
2021/05/15 05:42:28;;;;;;;;;;;;;;;16.01;72.88;98713.81;3523652;28;19932;-48
2021/05/15 05:44:09;;;;;;;;;;;;;;;16.06;73.00;98716.31;3525354;28;19927;-46
2021/05/15 05:45:50;;;;;;;;;;;;;;;16.06;72.69;98718.94;3525311;28;19927;-45
2021/05/15 05:47:31;;;;;;;;;;;;;;;16.05;72.88;98720.69;3524835;28;19928;-45
2021/05/15 05:49:11;;;;;;;;;;;;;;;16.04;72.45;98718.13;3525521;28;19928;-45
2021/05/15 05:50:52;;;;;;;;;;;;;;;16.05;72.78;98722.44;3524307;28;20389;-46
2021/05/15 05:52:33;;;;;;;;;;;;;;;16.03;72.85;98724.25;3525838;28;19988;-45
2021/05/15 05:54:14;;;;;;;;;;;;;;;15.98;72.35;98726.94;3524606;28;19971;-45
2021/05/15 05:55:55;;;;;;;;;;;;;;;15.95;72.83;98724.44;3525273;28;19928;-46
2021/05/15 05:57:35;;;;;;;;;;;;;;;15.95;73.20;98727.03;3524909;28;20293;-46
2021/05/15 05:59:16;;;;;;;;;;;;;;;15.94;73.12;98733.16;3524899;28;19928;-46
2021/05/15 06:00:57;;;;;;;;;;;;;;;15.92;73.20;98735.81;3525635;28;20023;-46
2021/05/15 06:02:38;;;;;;;;;;;;;;;15.92;73.10;98727.97;3524399;28;20046;-45
2021/05/15 06:04:19;;;;;;;;;;;;;;;15.94;73.23;98731.41;3525753;28;19928;-46
2021/05/15 06:06:00;;;;;;;;;;;;;;;15.98;72.95;98735.69;3524542;28;19967;-42
2021/05/15 06:07:40;;;;;;;;;;;;;;;16.02;73.01;98727.72;3525055;28;20428;-42
2021/05/15 06:09:22;;;;;;;;;;;;;;;16.04;72.50;98729.44;3524721;28;19981;-42
2021/05/15 06:11:03;;;;;;;;;;;;;;;16.07;72.31;98741.56;3524618;28;19927;-41
2021/05/15 06:12:43;;;;;;;;;;;;;;;16.07;72.25;98742.47;3525366;28;20391;-41
2021/05/15 06:14:24;;;;;;;;;;;;;;;16.06;72.28;98742.50;3522777;28;19927;-42
2021/05/15 06:16:05;;;;;;;;;;;;;;;16.10;72.91;98736.28;3525461;28;19938;-41
2021/05/15 06:17:46;;;;;;;;;;;;;;;16.16;72.59;98742.22;3524214;28;19927;-41
2021/05/15 06:19:26;;;;;;;;;;;;;;;16.23;72.18;98744.69;3525795;28;19928;-42
2021/05/15 06:21:07;;;;;;;;;;;;;;;16.28;72.16;98740.19;3524109;28;19928;-41
2021/05/15 06:22:48;;;;;;;;;;;;;;;16.35;71.70;98747.00;3524699;28;19981;-41
2021/05/15 06:24:29;;;;;;;;;;;;;;;16.43;71.22;98746.81;3525175;28;19935;-42
2021/05/15 06:26:10;;;;;;;;;;;;;;;16.50;70.43;98740.53;3524374;28;19928;-42
2021/05/15 06:27:51;;;;;;;;;;;;;;;16.59;70.43;98744.69;3525251;28;20273;-41
2021/05/15 06:29:32;;;;;;;;;;;;;;;16.79;70.78;98736.31;3524063;28;20018;-41
2021/05/15 06:31:13;;;;;;;;;;;;;;;17.01;69.81;98741.88;3525324;28;19935;-41
2021/05/15 06:32:54;;;;;;;;;;;;;;;17.17;69.84;98737.91;3524249;28;20031;-41
2021/05/15 06:34:35;;;;;;;;;;;;;;;17.29;68.67;98737.56;3524835;28;20415;-41
2021/05/15 06:36:15;;;;;;;;;;;;;;;17.37;68.65;98739.94;3524570;28;19928;-41
2021/05/15 06:37:56;;;;;;;;;;;;;;;17.51;68.77;98741.31;3524034;28;19928;-42
2021/05/15 06:39:37;;;;;;;;;;;;;;;17.64;68.55;98748.78;3525251;28;19935;-41
2021/05/15 06:41:18;;;;;;;;;;;;;;;17.81;66.93;98753.50;3523856;28;19938;-41
2021/05/15 06:42:59;;;;;;;;;;;;;;;17.97;67.06;98746.03;3525235;28;19975;-41
2021/05/15 06:44:40;;;;;;;;;;;;;;;18.09;66.48;98746.56;3523955;28;19928;-42
2021/05/15 06:46:21;;;;;;;;;;;;;;;18.25;64.26;98758.28;3524930;28;20072;-41
2021/05/15 06:48:01;;;;;;;;;;;;;;;18.36;64.98;98748.28;3524203;28;19927;-43
2021/05/15 06:49:43;;;;;;;;;;;;;;;18.46;64.04;98750.63;3524115;28;19935;-42
2021/05/15 06:51:23;;;;;;;;;;;;;;;18.56;64.51;98758.16;3524749;28;19977;-42
2021/05/15 06:53:04;;;;;;;;;;;;;;;18.64;64.20;98755.25;3523951;28;19927;-42
2021/05/15 06:54:45;;;;;;;;;;;;;;;18.71;64.10;98755.91;3525061;28;19961;-43
2021/05/15 06:56:26;;;;;;;;;;;;;;;18.74;63.94;98761.06;3523944;28;20404;-42
2021/05/15 06:58:07;;;;;;;;;;;;;;;18.78;63.06;98760.88;3524487;28;19959;-42
2021/05/15 06:59:48;;;;;;;;;;;;;;;18.85;61.98;98758.06;3524104;28;19963;-42
2021/05/15 07:01:29;;;;;;;;;;;;;;;18.93;62.83;98754.28;3523972;28;19928;-43
2021/05/15 07:03:09;;;;;;;;;;;;;;;19.05;62.57;98757.38;3524111;28;19980;-43
2021/05/15 07:04:50;;;;;;;;;;;;;;;19.09;61.61;98754.59;3523788;28;19928;-46
2021/05/15 07:06:31;;;;;;;;;;;;;;;19.08;61.88;98757.28;3525114;28;19935;-48
2021/05/15 07:08:12;;;;;;;;;;;;;;;19.08;61.50;98763.41;3523674;28;20404;-46
2021/05/15 07:09:54;;;;;;;;;;;;;;;19.00;59.56;98763.69;3524865;28;19928;-45
2021/05/15 07:11:34;;;;;;;;;;;;;;;19.07;60.65;98764.31;3523447;28;19967;-46
2021/05/15 07:13:15;;;;;;;;;;;;;;;19.14;60.74;98768.44;3522501;28;19935;-46
2021/05/15 07:14:56;;;;;;;;;;;;;;;19.23;60.25;98761.13;3524254;28;19932;-45
2021/05/15 07:16:37;;;;;;;;;;;;;;;19.22;60.42;98762.91;3522700;28;19927;-42
2021/05/15 07:18:18;;;;;;;;;;;;;;;19.29;60.15;98764.41;3524746;28;19987;-42
2021/05/15 07:19:59;;;;;;;;;;;;;;;19.45;59.90;98763.84;3523661;28;20018;-43
2021/05/15 07:21:39;;;;;;;;;;;;;;;19.51;60.22;98767.09;3524645;28;19928;-43
2021/05/15 07:23:20;;;;;;;;;;;;;;;19.60;60.50;98765.03;3523408;28;19981;-42
2021/05/15 07:25:01;;;;;;;;;;;;;;;19.72;59.51;98772.44;3524290;28;20306;-43
2021/05/15 07:26:42;;;;;;;;;;;;;;;19.76;59.09;98771.44;3524130;28;19928;-42
2021/05/15 07:28:23;;;;;;;;;;;;;;;19.83;58.54;98775.59;3523653;28;20302;-43
2021/05/15 07:30:04;;;;;;;;;;;;;;;19.91;58.91;98775.28;3524361;28;19951;-42
2021/05/15 07:31:45;;;;;;;;;;;;;;;19.90;58.36;98766.53;3523427;28;19971;-43
2021/05/15 07:33:26;;;;;;;;;;;;;;;19.87;58.53;98774.53;3524775;28;19934;-43
2021/05/15 07:35:07;;;;;;;;;;;;;;;19.84;58.18;98768.53;3523443;28;20057;-45
2021/05/15 07:36:48;;;;;;;;;;;;;;;19.77;58.38;98781.03;3523969;28;20466;-52
2021/05/15 07:38:29;;;;;;;;;;;;;;;19.68;58.73;98776.97;3524348;28;19928;-45
2021/05/15 07:40:11;;;;;;;;;;;;;;;19.70;58.45;98775.13;3523668;28;19959;-45
2021/05/15 07:41:51;;;;;;;;;;;;;;;19.83;58.41;98769.44;3510344;28;19928;-47
2021/05/15 07:43:32;;;;;;;;;;;;;;;19.88;58.20;98776.28;3519788;28;20010;-48
2021/05/15 07:45:13;;;;;;;;;;;;;;;19.94;58.29;98777.78;3524551;28;19927;-46
2021/05/15 07:46:54;;;;;;;;;;;;;;;20.05;58.40;98780.00;3523350;28;19931;-46
2021/05/15 07:48:38;;;;;;;;;;;;;;;20.08;57.40;98770.22;3523570;28;19981;-47
2021/05/15 07:50:19;;;;;;;;;;;;;;;20.03;57.19;98777.44;3524046;28;20389;-46
2021/05/15 07:52:00;;;;;;;;;;;;;;;19.93;55.66;98776.91;3523439;28;19927;-46
2021/05/15 07:53:41;;;;;;;;;;;;;;;19.91;56.29;98765.59;3524507;28;20340;-46
2021/05/15 07:55:22;;;;;;;;;;;;;;;19.93;57.63;98768.16;3523425;28;19931;-42
2021/05/15 07:57:03;;;;;;;;;;;;;;;19.91;56.92;98762.13;3524350;28;20026;-43
2021/05/15 07:58:43;;;;;;;;;;;;;;;19.83;56.90;98764.19;3523176;28;19935;-43
2021/05/15 08:00:24;;;;;;;;;;;;;;;19.96;57.83;98764.59;3523561;28;20422;-43
2021/05/15 08:02:05;;;;;;;;;;;;;;;19.99;57.09;98765.31;3523928;28;20197;-43
2021/05/15 08:03:46;;;;;;;;;;;;;;;19.93;56.79;98761.13;3523257;28;20019;-42
2021/05/15 08:05:26;;;;;;;;;;;;;;;19.86;56.49;98775.44;3524372;28;20514;-43
2021/05/15 08:07:07;;;;;;;;;;;;;;;19.80;56.62;98772.19;3523339;28;19928;-44
2021/05/15 08:08:48;;;;;;;;;;;;;;;19.71;57.23;98770.75;3524310;28;19927;-43
2021/05/15 08:10:29;;;;;;;;;;;;;;;19.68;57.83;98768.22;3523216;28;19988;-42
2021/05/15 08:12:10;;;;;;;;;;;;;;;19.61;57.75;98770.22;3523955;28;20024;-45
2021/05/15 08:13:51;;;;;;;;;;;;;;;19.61;58.03;98769.38;3515099;28;19928;-45
2021/05/15 08:15:32;;;;;;;;;;;;;;;19.61;58.46;98779.91;3516773;28;19927;-48
2021/05/15 08:17:12;;;;;;;;;;;;;;;19.65;58.83;98777.09;3526501;28;19927;-45
2021/05/15 08:18:53;;;;;;;;;;;;;;;19.65;58.33;98779.72;3525500;28;19934;-47
2021/05/15 08:20:33;;;;;;;;;;;;;;;19.59;57.47;98776.47;3526982;28;19927;-45
2021/05/15 08:22:14;;;;;;;;;;;;;;;19.62;58.34;98774.59;3525428;28;20027;-45
2021/05/15 08:23:55;;;;;;;;;;;;;;;19.85;58.15;98780.78;3526639;28;19932;-46
2021/05/15 08:25:37;;;;;;;;;;;;;;;20.06;56.83;98776.44;3526037;28;19931;-45
2021/05/15 08:27:17;;;;;;;;;;;;;;;20.12;56.00;98773.56;3526159;28;19976;-43
2021/05/15 08:29:00;;;;;;;;;;;;;;;20.13;55.82;98778.78;3526238;28;20376;-42
2021/05/15 08:30:42;;;;;;;;;;;;;;;20.03;56.32;98777.44;3524875;28;19982;-46
2021/05/15 08:32:22;;;;;;;;;;;;;;;19.96;56.81;98777.75;3526588;28;19928;-45
2021/05/15 08:34:03;;;;;;;;;;;;;;;19.92;56.83;98784.91;3525412;28;19928;-45
2021/05/15 08:35:44;;;;;;;;;;;;;;;19.90;57.28;98789.34;3526149;28;19996;-46
2021/05/15 08:37:25;;;;;;;;;;;;;;;19.85;57.13;98779.00;3525638;28;20030;-46
2021/05/15 08:39:06;;;;;;;;;;;;;;;19.88;57.46;98781.53;3525827;28;19928;-42
2021/05/15 08:40:47;;;;;;;;;;;;;;;19.95;56.73;98776.84;3525251;28;20396;-42
2021/05/15 08:42:28;;;;;;;;;;;;;;;20.06;58.62;98782.59;3525390;28;19927;-43
2021/05/15 08:44:11;;;;;;;;;;;;;;;20.26;56.95;98781.78;3512654;28;19928;-43
2021/05/15 08:45:54;;;;;;;;;;;;;;;20.45;55.65;98781.06;3521829;28;19974;-43
2021/05/15 08:47:36;;;;;;;;;;;;;;;20.60;55.36;98783.03;3526192;28;19927;-43